sensor_id;sensor_type;location;lat;lon;timestamp;P1;durP1;ratioP1;P2;durP2;ratioP2
84412;SDS011;74611;53.106;8.778;2024-01-30T00:01:43;6.60;;;2.47;;
84412;SDS011;74611;53.106;8.778;2024-01-30T00:04:08;5.18;;;2.22;;
84412;SDS011;74611;53.106;8.778;2024-01-30T00:06:34;7.13;;;1.98;;
84412;SDS011;74611;53.106;8.778;2024-01-30T00:08:59;3.97;;;1.75;;
84412;SDS011;74611;53.106;8.778;2024-01-30T00:11:25;3.08;;;1.35;;
84412;SDS011;74611;53.106;8.778;2024-01-30T00:13:51;7.00;;;3.00;;
84412;SDS011;74611;53.106;8.778;2024-01-30T00:16:23;5.10;;;1.90;;
84412;SDS011;74611;53.106;8.778;2024-01-30T00:18:52;3.53;;;1.65;;
84412;SDS011;74611;53.106;8.778;2024-01-30T00:21:18;4.30;;;1.88;;
84412;SDS011;74611;53.106;8.778;2024-01-30T00:23:44;5.28;;;1.90;;
84412;SDS011;74611;53.106;8.778;2024-01-30T00:26:09;4.95;;;2.28;;
84412;SDS011;74611;53.106;8.778;2024-01-30T00:28:35;5.18;;;1.95;;
84412;SDS011;74611;53.106;8.778;2024-01-30T00:31:00;5.50;;;2.80;;
84412;SDS011;74611;53.106;8.778;2024-01-30T00:33:26;4.65;;;1.90;;
84412;SDS011;74611;53.106;8.778;2024-01-30T00:35:54;4.90;;;1.58;;
84412;SDS011;74611;53.106;8.778;2024-01-30T00:38:20;5.20;;;1.42;;
84412;SDS011;74611;53.106;8.778;2024-01-30T00:40:45;5.43;;;2.03;;
84412;SDS011;74611;53.106;8.778;2024-01-30T00:43:11;4.03;;;1.85;;
84412;SDS011;74611;53.106;8.778;2024-01-30T00:45:36;3.65;;;1.20;;
84412;SDS011;74611;53.106;8.778;2024-01-30T00:48:02;3.72;;;1.55;;
84412;SDS011;74611;53.106;8.778;2024-01-30T00:50:27;4.40;;;1.73;;
84412;SDS011;74611;53.106;8.778;2024-01-30T00:52:53;3.20;;;1.25;;
84412;SDS011;74611;53.106;8.778;2024-01-30T00:55:18;4.47;;;1.70;;
84412;SDS011;74611;53.106;8.778;2024-01-30T00:57:44;4.00;;;1.80;;
84412;SDS011;74611;53.106;8.778;2024-01-30T01:00:10;3.67;;;1.58;;
84412;SDS011;74611;53.106;8.778;2024-01-30T01:02:35;2.88;;;1.20;;
84412;SDS011;74611;53.106;8.778;2024-01-30T01:05:01;5.00;;;1.67;;
84412;SDS011;74611;53.106;8.778;2024-01-30T01:07:27;4.53;;;2.47;;
84412;SDS011;74611;53.106;8.778;2024-01-30T01:09:53;5.05;;;2.40;;
84412;SDS011;74611;53.106;8.778;2024-01-30T01:12:18;6.28;;;2.47;;
84412;SDS011;74611;53.106;8.778;2024-01-30T01:14:44;3.38;;;1.35;;
84412;SDS011;74611;53.106;8.778;2024-01-30T01:17:10;5.43;;;2.08;;
84412;SDS011;74611;53.106;8.778;2024-01-30T01:19:38;4.18;;;1.58;;
84412;SDS011;74611;53.106;8.778;2024-01-30T01:22:04;4.30;;;2.00;;
84412;SDS011;74611;53.106;8.778;2024-01-30T01:24:32;4.68;;;1.92;;
84412;SDS011;74611;53.106;8.778;2024-01-30T01:27:00;4.65;;;1.90;;
84412;SDS011;74611;53.106;8.778;2024-01-30T01:29:26;5.97;;;1.55;;
84412;SDS011;74611;53.106;8.778;2024-01-30T01:31:54;7.28;;;2.45;;
84412;SDS011;74611;53.106;8.778;2024-01-30T01:34:24;4.68;;;2.33;;
84412;SDS011;74611;53.106;8.778;2024-01-30T01:36:50;4.32;;;1.88;;
84412;SDS011;74611;53.106;8.778;2024-01-30T01:39:16;3.50;;;1.42;;
84412;SDS011;74611;53.106;8.778;2024-01-30T01:41:41;4.18;;;1.70;;
84412;SDS011;74611;53.106;8.778;2024-01-30T01:44:07;2.95;;;1.20;;
84412;SDS011;74611;53.106;8.778;2024-01-30T01:46:33;2.83;;;1.50;;
84412;SDS011;74611;53.106;8.778;2024-01-30T01:49:00;7.70;;;1.52;;
84412;SDS011;74611;53.106;8.778;2024-01-30T01:51:30;3.95;;;1.67;;
84412;SDS011;74611;53.106;8.778;2024-01-30T01:53:58;7.45;;;1.60;;
84412;SDS011;74611;53.106;8.778;2024-01-30T01:56:28;3.20;;;1.27;;
84412;SDS011;74611;53.106;8.778;2024-01-30T01:58:55;6.45;;;2.95;;
84412;SDS011;74611;53.106;8.778;2024-01-30T02:01:24;7.25;;;2.08;;
84412;SDS011;74611;53.106;8.778;2024-01-30T02:03:52;4.80;;;2.00;;
84412;SDS011;74611;53.106;8.778;2024-01-30T02:06:18;4.47;;;1.90;;
84412;SDS011;74611;53.106;8.778;2024-01-30T02:12:06;3.20;;;1.08;;
84412;SDS011;74611;53.106;8.778;2024-01-30T02:14:31;5.18;;;1.67;;
84412;SDS011;74611;53.106;8.778;2024-01-30T02:16:57;4.20;;;1.73;;
84412;SDS011;74611;53.106;8.778;2024-01-30T02:19:22;6.43;;;1.77;;
84412;SDS011;74611;53.106;8.778;2024-01-30T02:21:48;4.65;;;1.88;;
84412;SDS011;74611;53.106;8.778;2024-01-30T02:24:16;4.43;;;1.40;;
84412;SDS011;74611;53.106;8.778;2024-01-30T02:26:42;16.63;;;1.52;;
84412;SDS011;74611;53.106;8.778;2024-01-30T02:29:09;4.95;;;2.10;;
84412;SDS011;74611;53.106;8.778;2024-01-30T02:31:34;4.97;;;2.63;;
84412;SDS011;74611;53.106;8.778;2024-01-30T02:33:59;4.22;;;1.75;;
84412;SDS011;74611;53.106;8.778;2024-01-30T02:36:25;5.25;;;1.85;;
84412;SDS011;74611;53.106;8.778;2024-01-30T02:38:54;4.78;;;1.80;;
84412;SDS011;74611;53.106;8.778;2024-01-30T02:41:19;5.38;;;2.00;;
84412;SDS011;74611;53.106;8.778;2024-01-30T02:43:45;5.68;;;2.05;;
84412;SDS011;74611;53.106;8.778;2024-01-30T02:46:10;6.85;;;1.98;;
84412;SDS011;74611;53.106;8.778;2024-01-30T02:48:36;5.50;;;2.03;;
84412;SDS011;74611;53.106;8.778;2024-01-30T02:51:04;4.85;;;2.03;;
84412;SDS011;74611;53.106;8.778;2024-01-30T02:53:31;11.27;;;1.90;;
84412;SDS011;74611;53.106;8.778;2024-01-30T02:55:56;3.95;;;1.77;;
84412;SDS011;74611;53.106;8.778;2024-01-30T02:58:22;4.57;;;2.15;;
84412;SDS011;74611;53.106;8.778;2024-01-30T03:00:47;3.88;;;1.70;;
84412;SDS011;74611;53.106;8.778;2024-01-30T03:03:12;4.65;;;2.15;;
84412;SDS011;74611;53.106;8.778;2024-01-30T03:05:38;6.13;;;1.95;;
84412;SDS011;74611;53.106;8.778;2024-01-30T03:08:04;5.35;;;2.40;;
84412;SDS011;74611;53.106;8.778;2024-01-30T03:10:30;6.13;;;2.15;;
84412;SDS011;74611;53.106;8.778;2024-01-30T03:12:55;4.57;;;2.05;;
84412;SDS011;74611;53.106;8.778;2024-01-30T03:15:21;9.65;;;3.45;;
84412;SDS011;74611;53.106;8.778;2024-01-30T03:17:46;4.80;;;1.45;;
84412;SDS011;74611;53.106;8.778;2024-01-30T03:20:12;4.75;;;1.70;;
84412;SDS011;74611;53.106;8.778;2024-01-30T03:22:41;3.45;;;1.35;;
84412;SDS011;74611;53.106;8.778;2024-01-30T03:25:06;4.32;;;1.85;;
84412;SDS011;74611;53.106;8.778;2024-01-30T03:27:32;5.82;;;2.03;;
84412;SDS011;74611;53.106;8.778;2024-01-30T03:29:57;5.15;;;1.52;;
84412;SDS011;74611;53.106;8.778;2024-01-30T03:32:23;3.97;;;2.05;;
84412;SDS011;74611;53.106;8.778;2024-01-30T03:34:48;5.20;;;2.00;;
84412;SDS011;74611;53.106;8.778;2024-01-30T03:37:14;8.95;;;2.28;;
84412;SDS011;74611;53.106;8.778;2024-01-30T03:39:39;7.75;;;1.80;;
84412;SDS011;74611;53.106;8.778;2024-01-30T03:42:05;4.18;;;1.88;;
84412;SDS011;74611;53.106;8.778;2024-01-30T03:44:30;5.05;;;2.35;;
84412;SDS011;74611;53.106;8.778;2024-01-30T03:46:56;5.00;;;1.70;;
84412;SDS011;74611;53.106;8.778;2024-01-30T03:49:21;3.75;;;1.63;;
84412;SDS011;74611;53.106;8.778;2024-01-30T03:51:47;5.63;;;1.75;;
84412;SDS011;74611;53.106;8.778;2024-01-30T03:54:12;5.05;;;1.60;;
84412;SDS011;74611;53.106;8.778;2024-01-30T03:56:38;4.88;;;1.70;;
84412;SDS011;74611;53.106;8.778;2024-01-30T03:59:03;6.30;;;2.53;;
84412;SDS011;74611;53.106;8.778;2024-01-30T04:01:29;4.88;;;1.90;;
84412;SDS011;74611;53.106;8.778;2024-01-30T04:03:54;4.38;;;1.58;;
84412;SDS011;74611;53.106;8.778;2024-01-30T04:06:20;6.45;;;2.42;;
84412;SDS011;74611;53.106;8.778;2024-01-30T04:08:45;5.38;;;1.83;;
84412;SDS011;74611;53.106;8.778;2024-01-30T04:11:11;4.00;;;1.58;;
84412;SDS011;74611;53.106;8.778;2024-01-30T04:13:36;5.70;;;2.03;;
84412;SDS011;74611;53.106;8.778;2024-01-30T04:16:02;4.03;;;1.52;;
84412;SDS011;74611;53.106;8.778;2024-01-30T04:18:28;3.97;;;1.83;;
84412;SDS011;74611;53.106;8.778;2024-01-30T04:20:57;4.25;;;2.00;;
84412;SDS011;74611;53.106;8.778;2024-01-30T04:23:22;5.18;;;1.95;;
84412;SDS011;74611;53.106;8.778;2024-01-30T04:25:48;6.88;;;2.13;;
84412;SDS011;74611;53.106;8.778;2024-01-30T04:28:13;5.82;;;2.58;;
84412;SDS011;74611;53.106;8.778;2024-01-30T04:30:39;4.30;;;1.92;;
84412;SDS011;74611;53.106;8.778;2024-01-30T04:33:04;4.57;;;1.70;;
84412;SDS011;74611;53.106;8.778;2024-01-30T04:35:30;9.05;;;2.17;;
84412;SDS011;74611;53.106;8.778;2024-01-30T04:37:56;5.85;;;2.35;;
84412;SDS011;74611;53.106;8.778;2024-01-30T04:40:21;5.20;;;2.50;;
84412;SDS011;74611;53.106;8.778;2024-01-30T04:42:47;4.63;;;1.52;;
84412;SDS011;74611;53.106;8.778;2024-01-30T04:45:13;4.57;;;2.13;;
84412;SDS011;74611;53.106;8.778;2024-01-30T04:47:38;4.32;;;1.77;;
84412;SDS011;74611;53.106;8.778;2024-01-30T04:50:04;4.72;;;1.80;;
84412;SDS011;74611;53.106;8.778;2024-01-30T04:52:31;3.97;;;1.42;;
84412;SDS011;74611;53.106;8.778;2024-01-30T04:54:57;4.40;;;2.35;;
84412;SDS011;74611;53.106;8.778;2024-01-30T04:57:22;5.25;;;1.90;;
84412;SDS011;74611;53.106;8.778;2024-01-30T04:59:48;3.80;;;1.73;;
84412;SDS011;74611;53.106;8.778;2024-01-30T05:02:14;7.68;;;2.00;;
84412;SDS011;74611;53.106;8.778;2024-01-30T05:04:40;4.35;;;2.08;;
84412;SDS011;74611;53.106;8.778;2024-01-30T05:07:06;4.82;;;1.85;;
84412;SDS011;74611;53.106;8.778;2024-01-30T05:09:32;4.28;;;1.92;;
84412;SDS011;74611;53.106;8.778;2024-01-30T05:11:57;5.38;;;2.60;;
84412;SDS011;74611;53.106;8.778;2024-01-30T05:14:23;3.88;;;1.83;;
84412;SDS011;74611;53.106;8.778;2024-01-30T05:16:48;3.95;;;1.63;;
84412;SDS011;74611;53.106;8.778;2024-01-30T05:19:14;5.28;;;2.05;;
84412;SDS011;74611;53.106;8.778;2024-01-30T05:21:43;8.05;;;2.00;;
84412;SDS011;74611;53.106;8.778;2024-01-30T05:24:08;5.05;;;2.08;;
84412;SDS011;74611;53.106;8.778;2024-01-30T05:26:35;6.20;;;2.00;;
84412;SDS011;74611;53.106;8.778;2024-01-30T05:29:00;5.07;;;1.90;;
84412;SDS011;74611;53.106;8.778;2024-01-30T05:31:26;4.70;;;1.90;;
84412;SDS011;74611;53.106;8.778;2024-01-30T05:33:52;6.75;;;2.70;;
84412;SDS011;74611;53.106;8.778;2024-01-30T05:36:20;3.55;;;1.50;;
84412;SDS011;74611;53.106;8.778;2024-01-30T05:38:46;3.75;;;1.70;;
84412;SDS011;74611;53.106;8.778;2024-01-30T05:41:12;4.93;;;2.33;;
84412;SDS011;74611;53.106;8.778;2024-01-30T05:43:37;5.70;;;2.63;;
84412;SDS011;74611;53.106;8.778;2024-01-30T05:46:03;5.10;;;2.08;;
84412;SDS011;74611;53.106;8.778;2024-01-30T05:48:28;4.05;;;1.85;;
84412;SDS011;74611;53.106;8.778;2024-01-30T05:50:54;5.03;;;2.10;;
84412;SDS011;74611;53.106;8.778;2024-01-30T05:53:19;4.63;;;1.98;;
84412;SDS011;74611;53.106;8.778;2024-01-30T05:55:45;10.98;;;2.22;;
84412;SDS011;74611;53.106;8.778;2024-01-30T05:58:11;5.32;;;2.17;;
84412;SDS011;74611;53.106;8.778;2024-01-30T06:00:36;4.22;;;2.05;;
84412;SDS011;74611;53.106;8.778;2024-01-30T06:03:02;4.20;;;1.67;;
84412;SDS011;74611;53.106;8.778;2024-01-30T06:05:27;7.65;;;2.05;;
84412;SDS011;74611;53.106;8.778;2024-01-30T06:07:53;3.35;;;1.58;;
84412;SDS011;74611;53.106;8.778;2024-01-30T06:10:18;5.95;;;2.22;;
84412;SDS011;74611;53.106;8.778;2024-01-30T06:12:44;3.65;;;1.33;;
84412;SDS011;74611;53.106;8.778;2024-01-30T06:15:09;5.70;;;1.85;;
84412;SDS011;74611;53.106;8.778;2024-01-30T06:17:36;3.72;;;1.88;;
84412;SDS011;74611;53.106;8.778;2024-01-30T06:20:01;6.43;;;3.00;;
84412;SDS011;74611;53.106;8.778;2024-01-30T06:22:27;5.78;;;1.85;;
84412;SDS011;74611;53.106;8.778;2024-01-30T06:24:53;6.13;;;2.33;;
84412;SDS011;74611;53.106;8.778;2024-01-30T06:27:18;7.50;;;3.10;;
84412;SDS011;74611;53.106;8.778;2024-01-30T06:29:44;5.15;;;2.15;;
84412;SDS011;74611;53.106;8.778;2024-01-30T06:32:09;4.85;;;2.28;;
84412;SDS011;74611;53.106;8.778;2024-01-30T06:34:35;5.68;;;2.13;;
84412;SDS011;74611;53.106;8.778;2024-01-30T06:37:01;4.40;;;2.20;;
84412;SDS011;74611;53.106;8.778;2024-01-30T06:39:26;4.32;;;1.92;;
84412;SDS011;74611;53.106;8.778;2024-01-30T06:41:52;5.18;;;2.10;;
84412;SDS011;74611;53.106;8.778;2024-01-30T06:44:17;5.75;;;2.38;;
84412;SDS011;74611;53.106;8.778;2024-01-30T06:46:43;5.57;;;2.28;;
84412;SDS011;74611;53.106;8.778;2024-01-30T06:49:09;5.70;;;2.55;;
84412;SDS011;74611;53.106;8.778;2024-01-30T06:51:34;5.38;;;2.63;;
84412;SDS011;74611;53.106;8.778;2024-01-30T06:54:00;4.75;;;2.20;;
84412;SDS011;74611;53.106;8.778;2024-01-30T06:56:25;9.43;;;2.28;;
84412;SDS011;74611;53.106;8.778;2024-01-30T06:58:51;5.65;;;2.28;;
84412;SDS011;74611;53.106;8.778;2024-01-30T07:01:16;5.72;;;2.25;;
84412;SDS011;74611;53.106;8.778;2024-01-30T07:03:42;6.18;;;2.63;;
84412;SDS011;74611;53.106;8.778;2024-01-30T07:06:08;6.55;;;2.30;;
84412;SDS011;74611;53.106;8.778;2024-01-30T07:08:33;7.43;;;2.50;;
84412;SDS011;74611;53.106;8.778;2024-01-30T07:10:59;6.00;;;2.47;;
84412;SDS011;74611;53.106;8.778;2024-01-30T07:13:24;5.35;;;1.85;;
84412;SDS011;74611;53.106;8.778;2024-01-30T07:15:50;9.77;;;2.33;;
84412;SDS011;74611;53.106;8.778;2024-01-30T07:18:16;3.83;;;2.17;;
84412;SDS011;74611;53.106;8.778;2024-01-30T07:20:41;5.88;;;2.33;;
84412;SDS011;74611;53.106;8.778;2024-01-30T07:23:11;6.38;;;1.77;;
84412;SDS011;74611;53.106;8.778;2024-01-30T07:25:39;5.53;;;2.42;;
84412;SDS011;74611;53.106;8.778;2024-01-30T07:28:06;3.55;;;2.10;;
84412;SDS011;74611;53.106;8.778;2024-01-30T07:30:34;3.83;;;2.03;;
84412;SDS011;74611;53.106;8.778;2024-01-30T07:33:00;5.38;;;2.45;;
84412;SDS011;74611;53.106;8.778;2024-01-30T07:35:26;5.93;;;2.47;;
84412;SDS011;74611;53.106;8.778;2024-01-30T07:37:51;4.88;;;2.08;;
84412;SDS011;74611;53.106;8.778;2024-01-30T07:40:17;8.15;;;2.33;;
84412;SDS011;74611;53.106;8.778;2024-01-30T07:42:43;5.13;;;2.33;;
84412;SDS011;74611;53.106;8.778;2024-01-30T07:45:11;5.90;;;2.72;;
84412;SDS011;74611;53.106;8.778;2024-01-30T07:47:37;12.50;;;3.45;;
84412;SDS011;74611;53.106;8.778;2024-01-30T07:50:02;3.40;;;1.63;;
84412;SDS011;74611;53.106;8.778;2024-01-30T07:52:28;4.25;;;2.00;;
84412;SDS011;74611;53.106;8.778;2024-01-30T07:54:54;6.43;;;2.13;;
84412;SDS011;74611;53.106;8.778;2024-01-30T07:57:20;5.88;;;2.65;;
84412;SDS011;74611;53.106;8.778;2024-01-30T07:59:49;5.75;;;2.25;;
84412;SDS011;74611;53.106;8.778;2024-01-30T08:02:14;5.88;;;2.20;;
84412;SDS011;74611;53.106;8.778;2024-01-30T08:04:40;6.25;;;2.83;;
84412;SDS011;74611;53.106;8.778;2024-01-30T08:07:05;5.53;;;2.67;;
84412;SDS011;74611;53.106;8.778;2024-01-30T08:09:31;5.53;;;2.30;;
84412;SDS011;74611;53.106;8.778;2024-01-30T08:11:56;4.40;;;1.98;;
84412;SDS011;74611;53.106;8.778;2024-01-30T08:14:22;5.38;;;2.53;;
84412;SDS011;74611;53.106;8.778;2024-01-30T08:16:47;7.35;;;2.10;;
84412;SDS011;74611;53.106;8.778;2024-01-30T08:19:14;5.82;;;2.17;;
84412;SDS011;74611;53.106;8.778;2024-01-30T08:21:40;5.40;;;2.28;;
84412;SDS011;74611;53.106;8.778;2024-01-30T08:24:05;6.97;;;3.05;;
84412;SDS011;74611;53.106;8.778;2024-01-30T08:26:32;9.88;;;2.35;;
84412;SDS011;74611;53.106;8.778;2024-01-30T08:28:58;5.82;;;2.45;;
84412;SDS011;74611;53.106;8.778;2024-01-30T08:31:23;5.30;;;2.30;;
84412;SDS011;74611;53.106;8.778;2024-01-30T08:33:49;5.55;;;2.25;;
84412;SDS011;74611;53.106;8.778;2024-01-30T08:36:15;7.70;;;2.55;;
84412;SDS011;74611;53.106;8.778;2024-01-30T08:38:42;4.57;;;2.33;;
84412;SDS011;74611;53.106;8.778;2024-01-30T08:41:08;8.32;;;2.85;;
84412;SDS011;74611;53.106;8.778;2024-01-30T08:43:33;5.43;;;2.45;;
84412;SDS011;74611;53.106;8.778;2024-01-30T08:45:59;10.13;;;2.85;;
84412;SDS011;74611;53.106;8.778;2024-01-30T08:48:25;6.13;;;2.35;;
84412;SDS011;74611;53.106;8.778;2024-01-30T08:50:51;6.95;;;2.45;;
84412;SDS011;74611;53.106;8.778;2024-01-30T08:53:16;5.88;;;2.85;;
84412;SDS011;74611;53.106;8.778;2024-01-30T08:55:42;5.10;;;2.25;;
84412;SDS011;74611;53.106;8.778;2024-01-30T08:58:07;4.72;;;2.25;;
84412;SDS011;74611;53.106;8.778;2024-01-30T09:00:33;7.60;;;2.90;;
84412;SDS011;74611;53.106;8.778;2024-01-30T09:02:58;7.00;;;2.63;;
84412;SDS011;74611;53.106;8.778;2024-01-30T09:05:24;7.68;;;3.17;;
84412;SDS011;74611;53.106;8.778;2024-01-30T09:07:49;6.38;;;2.55;;
84412;SDS011;74611;53.106;8.778;2024-01-30T09:10:15;5.85;;;2.25;;
84412;SDS011;74611;53.106;8.778;2024-01-30T09:12:40;5.07;;;2.20;;
84412;SDS011;74611;53.106;8.778;2024-01-30T09:15:06;6.20;;;2.55;;
84412;SDS011;74611;53.106;8.778;2024-01-30T09:17:32;14.65;;;2.80;;
84412;SDS011;74611;53.106;8.778;2024-01-30T09:19:58;7.90;;;2.80;;
84412;SDS011;74611;53.106;8.778;2024-01-30T09:22:24;6.57;;;3.00;;
84412;SDS011;74611;53.106;8.778;2024-01-30T09:24:49;6.15;;;2.38;;
84412;SDS011;74611;53.106;8.778;2024-01-30T09:27:18;11.73;;;3.40;;
84412;SDS011;74611;53.106;8.778;2024-01-30T09:29:46;5.57;;;2.60;;
84412;SDS011;74611;53.106;8.778;2024-01-30T09:32:12;9.43;;;3.30;;
84412;SDS011;74611;53.106;8.778;2024-01-30T09:34:37;5.90;;;3.10;;
84412;SDS011;74611;53.106;8.778;2024-01-30T09:37:04;5.85;;;2.40;;
84412;SDS011;74611;53.106;8.778;2024-01-30T09:39:29;6.82;;;3.28;;
84412;SDS011;74611;53.106;8.778;2024-01-30T09:44:36;4.82;;;2.25;;
84412;SDS011;74611;53.106;8.778;2024-01-30T09:47:03;6.97;;;2.75;;
84412;SDS011;74611;53.106;8.778;2024-01-30T09:49:34;7.97;;;2.85;;
84412;SDS011;74611;53.106;8.778;2024-01-30T09:52:02;7.60;;;3.38;;
84412;SDS011;74611;53.106;8.778;2024-01-30T09:54:30;5.68;;;2.50;;
84412;SDS011;74611;53.106;8.778;2024-01-30T09:56:59;6.50;;;2.58;;
84412;SDS011;74611;53.106;8.778;2024-01-30T09:59:24;7.10;;;3.22;;
84412;SDS011;74611;53.106;8.778;2024-01-30T10:01:50;7.13;;;2.97;;
84412;SDS011;74611;53.106;8.778;2024-01-30T10:04:16;8.60;;;2.90;;
84412;SDS011;74611;53.106;8.778;2024-01-30T10:06:42;6.38;;;2.95;;
84412;SDS011;74611;53.106;8.778;2024-01-30T10:09:08;11.05;;;3.33;;
84412;SDS011;74611;53.106;8.778;2024-01-30T10:11:34;9.55;;;3.60;;
84412;SDS011;74611;53.106;8.778;2024-01-30T10:14:01;9.38;;;3.17;;
84412;SDS011;74611;53.106;8.778;2024-01-30T10:16:27;7.95;;;2.85;;
84412;SDS011;74611;53.106;8.778;2024-01-30T10:18:52;6.68;;;3.22;;
84412;SDS011;74611;53.106;8.778;2024-01-30T10:21:18;7.13;;;3.00;;
84412;SDS011;74611;53.106;8.778;2024-01-30T10:23:43;8.15;;;2.92;;
84412;SDS011;74611;53.106;8.778;2024-01-30T10:26:12;12.45;;;3.33;;
84412;SDS011;74611;53.106;8.778;2024-01-30T10:28:37;8.25;;;2.75;;
84412;SDS011;74611;53.106;8.778;2024-01-30T10:31:03;8.15;;;2.95;;
84412;SDS011;74611;53.106;8.778;2024-01-30T10:33:29;6.95;;;3.05;;
84412;SDS011;74611;53.106;8.778;2024-01-30T10:35:57;7.10;;;2.60;;
84412;SDS011;74611;53.106;8.778;2024-01-30T10:38:27;6.35;;;2.20;;
84412;SDS011;74611;53.106;8.778;2024-01-30T10:40:56;8.23;;;3.05;;
84412;SDS011;74611;53.106;8.778;2024-01-30T10:43:22;7.75;;;2.63;;
84412;SDS011;74611;53.106;8.778;2024-01-30T10:45:54;8.10;;;3.53;;
84412;SDS011;74611;53.106;8.778;2024-01-30T10:48:29;7.13;;;3.00;;
84412;SDS011;74611;53.106;8.778;2024-01-30T10:50:57;5.32;;;2.50;;
84412;SDS011;74611;53.106;8.778;2024-01-30T10:53:25;6.78;;;2.85;;
84412;SDS011;74611;53.106;8.778;2024-01-30T10:55:52;7.07;;;3.00;;
84412;SDS011;74611;53.106;8.778;2024-01-30T10:58:19;9.30;;;3.70;;
84412;SDS011;74611;53.106;8.778;2024-01-30T11:00:46;6.70;;;3.13;;
84412;SDS011;74611;53.106;8.778;2024-01-30T11:03:11;9.32;;;3.10;;
84412;SDS011;74611;53.106;8.778;2024-01-30T11:05:40;9.35;;;3.58;;
84412;SDS011;74611;53.106;8.778;2024-01-30T11:08:12;8.30;;;3.33;;
84412;SDS011;74611;53.106;8.778;2024-01-30T11:10:48;6.60;;;3.22;;
84412;SDS011;74611;53.106;8.778;2024-01-30T11:13:14;9.27;;;3.20;;
84412;SDS011;74611;53.106;8.778;2024-01-30T11:15:40;6.75;;;3.17;;
84412;SDS011;74611;53.106;8.778;2024-01-30T11:18:05;6.68;;;2.80;;
84412;SDS011;74611;53.106;8.778;2024-01-30T11:20:31;12.07;;;3.47;;
84412;SDS011;74611;53.106;8.778;2024-01-30T11:22:57;9.45;;;3.78;;
84412;SDS011;74611;53.106;8.778;2024-01-30T11:25:23;7.38;;;3.28;;
84412;SDS011;74611;53.106;8.778;2024-01-30T11:27:50;9.90;;;3.70;;
84412;SDS011;74611;53.106;8.778;2024-01-30T11:35:32;14.75;;;3.15;;
84412;SDS011;74611;53.106;8.778;2024-01-30T11:37:59;8.45;;;3.80;;
84412;SDS011;74611;53.106;8.778;2024-01-30T11:40:29;8.45;;;3.05;;
84412;SDS011;74611;53.106;8.778;2024-01-30T11:42:55;6.80;;;3.25;;
84412;SDS011;74611;53.106;8.778;2024-01-30T11:45:23;7.88;;;3.42;;
84412;SDS011;74611;53.106;8.778;2024-01-30T11:47:48;7.03;;;2.70;;
84412;SDS011;74611;53.106;8.778;2024-01-30T11:50:14;7.28;;;2.63;;
84412;SDS011;74611;53.106;8.778;2024-01-30T11:52:40;6.05;;;2.42;;
84412;SDS011;74611;53.106;8.778;2024-01-30T11:55:07;5.68;;;2.72;;
84412;SDS011;74611;53.106;8.778;2024-01-30T11:57:33;8.88;;;3.58;;
84412;SDS011;74611;53.106;8.778;2024-01-30T12:00:01;7.07;;;2.85;;
84412;SDS011;74611;53.106;8.778;2024-01-30T12:02:29;6.13;;;2.78;;
84412;SDS011;74611;53.106;8.778;2024-01-30T12:04:55;8.80;;;3.00;;
84412;SDS011;74611;53.106;8.778;2024-01-30T12:07:20;8.43;;;3.08;;
84412;SDS011;74611;53.106;8.778;2024-01-30T12:09:53;7.25;;;2.92;;
84412;SDS011;74611;53.106;8.778;2024-01-30T12:12:21;7.55;;;3.03;;
84412;SDS011;74611;53.106;8.778;2024-01-30T12:14:48;8.40;;;2.60;;
84412;SDS011;74611;53.106;8.778;2024-01-30T12:17:23;9.52;;;3.47;;
84412;SDS011;74611;53.106;8.778;2024-01-30T12:20:40;6.53;;;2.55;;
84412;SDS011;74611;53.106;8.778;2024-01-30T12:22:44;8.73;;;3.08;;
84412;SDS011;74611;53.106;8.778;2024-01-30T12:25:21;6.90;;;3.15;;
84412;SDS011;74611;53.106;8.778;2024-01-30T12:27:49;6.25;;;2.78;;
84412;SDS011;74611;53.106;8.778;2024-01-30T12:30:16;10.23;;;2.88;;
84412;SDS011;74611;53.106;8.778;2024-01-30T12:36:07;7.55;;;2.83;;
84412;SDS011;74611;53.106;8.778;2024-01-30T12:38:32;12.85;;;3.58;;
84412;SDS011;74611;53.106;8.778;2024-01-30T12:40:58;7.90;;;3.30;;
84412;SDS011;74611;53.106;8.778;2024-01-30T12:43:24;9.32;;;3.22;;
84412;SDS011;74611;53.106;8.778;2024-01-30T12:45:50;6.20;;;2.95;;
84412;SDS011;74611;53.106;8.778;2024-01-30T12:48:17;7.00;;;2.50;;
84412;SDS011;74611;53.106;8.778;2024-01-30T12:50:46;9.32;;;3.53;;
84412;SDS011;74611;53.106;8.778;2024-01-30T12:53:11;6.35;;;2.63;;
84412;SDS011;74611;53.106;8.778;2024-01-30T12:55:38;13.98;;;3.83;;
84412;SDS011;74611;53.106;8.778;2024-01-30T12:58:03;10.63;;;2.67;;
84412;SDS011;74611;53.106;8.778;2024-01-30T13:00:29;8.25;;;2.90;;
84412;SDS011;74611;53.106;8.778;2024-01-30T13:02:55;8.77;;;3.15;;
84412;SDS011;74611;53.106;8.778;2024-01-30T13:05:20;6.32;;;2.72;;
84412;SDS011;74611;53.106;8.778;2024-01-30T13:07:46;8.30;;;3.20;;
84412;SDS011;74611;53.106;8.778;2024-01-30T13:10:12;9.23;;;3.10;;
84412;SDS011;74611;53.106;8.778;2024-01-30T13:12:38;10.60;;;2.95;;
84412;SDS011;74611;53.106;8.778;2024-01-30T13:15:04;7.72;;;2.42;;
84412;SDS011;74611;53.106;8.778;2024-01-30T13:17:30;8.77;;;3.17;;
84412;SDS011;74611;53.106;8.778;2024-01-30T13:19:56;6.50;;;3.17;;
84412;SDS011;74611;53.106;8.778;2024-01-30T13:22:23;9.02;;;3.67;;
84412;SDS011;74611;53.106;8.778;2024-01-30T13:24:49;8.38;;;2.60;;
84412;SDS011;74611;53.106;8.778;2024-01-30T13:27:15;6.38;;;2.70;;
84412;SDS011;74611;53.106;8.778;2024-01-30T13:29:40;7.03;;;2.85;;
84412;SDS011;74611;53.106;8.778;2024-01-30T13:32:06;7.32;;;2.72;;
84412;SDS011;74611;53.106;8.778;2024-01-30T13:34:32;8.70;;;3.22;;
84412;SDS011;74611;53.106;8.778;2024-01-30T13:36:57;7.65;;;2.88;;
84412;SDS011;74611;53.106;8.778;2024-01-30T13:39:23;9.38;;;3.67;;
84412;SDS011;74611;53.106;8.778;2024-01-30T13:41:49;8.63;;;3.17;;
84412;SDS011;74611;53.106;8.778;2024-01-30T13:44:15;9.77;;;3.50;;
84412;SDS011;74611;53.106;8.778;2024-01-30T13:46:45;6.22;;;2.58;;
84412;SDS011;74611;53.106;8.778;2024-01-30T13:49:11;9.48;;;2.85;;
84412;SDS011;74611;53.106;8.778;2024-01-30T13:51:37;8.18;;;2.95;;
84412;SDS011;74611;53.106;8.778;2024-01-30T13:54:03;7.97;;;3.10;;
84412;SDS011;74611;53.106;8.778;2024-01-30T13:56:29;8.38;;;2.95;;
84412;SDS011;74611;53.106;8.778;2024-01-30T13:58:55;6.78;;;2.67;;
84412;SDS011;74611;53.106;8.778;2024-01-30T14:01:21;8.77;;;2.72;;
84412;SDS011;74611;53.106;8.778;2024-01-30T14:03:47;6.85;;;2.33;;
84412;SDS011;74611;53.106;8.778;2024-01-30T14:06:13;6.38;;;2.80;;
84412;SDS011;74611;53.106;8.778;2024-01-30T14:08:39;7.53;;;2.53;;
84412;SDS011;74611;53.106;8.778;2024-01-30T14:11:04;12.00;;;3.03;;
84412;SDS011;74611;53.106;8.778;2024-01-30T14:13:30;6.80;;;2.67;;
84412;SDS011;74611;53.106;8.778;2024-01-30T14:15:57;7.97;;;3.15;;
84412;SDS011;74611;53.106;8.778;2024-01-30T14:18:23;11.27;;;3.22;;
84412;SDS011;74611;53.106;8.778;2024-01-30T14:20:50;8.65;;;3.28;;
84412;SDS011;74611;53.106;8.778;2024-01-30T14:23:17;5.60;;;2.30;;
84412;SDS011;74611;53.106;8.778;2024-01-30T14:25:43;7.43;;;2.78;;
84412;SDS011;74611;53.106;8.778;2024-01-30T14:28:08;7.43;;;2.80;;
84412;SDS011;74611;53.106;8.778;2024-01-30T14:30:34;8.20;;;3.05;;
84412;SDS011;74611;53.106;8.778;2024-01-30T14:33:00;11.27;;;2.35;;
84412;SDS011;74611;53.106;8.778;2024-01-30T14:35:26;6.78;;;2.47;;
84412;SDS011;74611;53.106;8.778;2024-01-30T14:37:52;6.25;;;2.92;;
84412;SDS011;74611;53.106;8.778;2024-01-30T14:40:20;7.53;;;2.63;;
84412;SDS011;74611;53.106;8.778;2024-01-30T14:42:46;8.77;;;3.05;;
84412;SDS011;74611;53.106;8.778;2024-01-30T14:45:12;6.47;;;2.92;;
84412;SDS011;74611;53.106;8.778;2024-01-30T14:47:37;9.07;;;3.58;;
84412;SDS011;74611;53.106;8.778;2024-01-30T14:50:04;4.88;;;1.92;;
84412;SDS011;74611;53.106;8.778;2024-01-30T14:54:56;6.60;;;2.55;;
84412;SDS011;74611;53.106;8.778;2024-01-30T14:57:23;11.60;;;2.78;;
84412;SDS011;74611;53.106;8.778;2024-01-30T14:59:51;7.13;;;2.65;;